Chrisanthi — SX7108 — position and weather

sailwx.info

Track history (hours):
 
Tides and Currents Weather Stations Pressure Air Temp Water Temp Dewpoint Dewpoint Depression Visibility Wind Speed Wind Dir Waves Ship Positions

Chrisanthi

Last reported at 2014-Dec-22 09:33 UTC. Time now 2014-Dec-22 09:58 UTC.
Position N 36°23' E 025°26'.

Length 56 m; draft 3.9 m.

Type: Tanker. MMSI: 237009100.

Date/timePositionNaut miles runAvg speedWind from/ knotsBaromVisibWave heightAir tempDewpointWater temp
2014-Dec-22 09:33N 36°23' E 025°26'0 0.0
2014-Dec-22 08:33N 36°23' E 025°26'0 0.0
2014-Dec-22 07:33N 36°23' E 025°26'0 0.0
2014-Dec-22 06:33N 36°23' E 025°26'0 0.1
2014-Dec-22 05:33N 36°23' E 025°26'3 2.9
2014-Dec-22 04:33N 36°20' E 025°24'0 0.0
2014-Dec-22 03:33N 36°20' E 025°24'0 0.0
2014-Dec-22 02:33N 36°20' E 025°24'0 0.0
2014-Dec-22 01:33N 36°20' E 025°24'0 0.0
2014-Dec-22 00:33N 36°20' E 025°24'0 0.0
2014-Dec-21 23:33N 36°20' E 025°24'0 0.0
2014-Dec-21 22:33N 36°20' E 025°24'4 3.9
2014-Dec-21 21:33N 36°21' E 025°29'1010.4
2014-Dec-21 20:33N 36°27' E 025°39'1010.1
2014-Dec-21 19:33N 36°28' E 025°52'1010.1
2014-Dec-21 18:33N 36°29' E 026°04'1210.3
2014-Dec-21 17:24N 36°29' E 026°19'4 1.2
2014-Dec-21 14:08N 36°32' E 026°22'  
2014-Dec-19 06:33N 37°05' E 026°20'1010.1
2014-Dec-19 05:33N 37°07' E 026°08'1010.3
2014-Dec-19 04:33N 37°10' E 025°55'1010.1
2014-Dec-19 03:33N 37°13' E 025°43'1010.0
2014-Dec-19 02:33N 37°15' E 025°31'10 9.6
2014-Dec-19 01:33N 37°17' E 025°19'13 9.3
2014-Dec-19 00:09N 37°20' E 025°03'6 9.8
2014-Dec-18 23:33N 37°20' E 024°56'10 9.7
2014-Dec-18 22:33N 37°24' E 024°44'5010.0
2014-Dec-18 17:33N 37°39' E 023°44'9 9.6
2014-Dec-18 16:33N 37°47' E 023°38'10 9.6
2014-Dec-18 15:33N 37°51' E 023°27'7 0.4
2014-Dec-18 00:30N 37°52' E 023°19'1010.6
2014-Dec-17 23:33N 37°50' E 023°31'9 9.4
2014-Dec-17 22:33N 37°46' E 023°42'29 9.7
2014-Dec-17 19:32N 37°30' E 024°13'1010.3
2014-Dec-17 18:33N 37°30' E 024°26'9 9.3
2014-Dec-17 17:33N 37°22' E 024°32'9 9.4
2014-Dec-17 16:33N 37°17' E 024°42'10 9.5
2014-Dec-17 15:33N 37°14' E 024°54'10 9.8
2014-Dec-17 14:33N 37°08' E 025°04'5 4.8
2014-Dec-17 13:28N 37°05' E 025°09'0 0.0
2014-Dec-17 12:28N 37°05' E 025°09'0 0.0
2014-Dec-17 11:28N 37°05' E 025°09'0 0.3
2014-Dec-17 10:03N 37°05' E 025°08'0 0.2
2014-Dec-17 09:33N 37°05' E 025°08'0 0.0
2014-Dec-17 08:24N 37°05' E 025°08'0 0.1
2014-Dec-17 07:22N 37°06' E 025°08'0 0.0
2014-Dec-17 06:33N 37°06' E 025°08'0 0.0
2014-Dec-17 05:29N 37°06' E 025°08'0 0.0
2014-Dec-17 04:26N 37°06' E 025°08'0 0.0
2014-Dec-17 03:30N 37°06' E 025°08'0 0.0
2014-Dec-17 02:33N 37°06' E 025°08'0 0.0
2014-Dec-17 01:31N 37°06' E 025°08'0 0.0
2014-Dec-17 00:16N 37°06' E 025°08'0 0.0
2014-Dec-16 23:20N 37°06' E 025°08'0 0.1
2014-Dec-16 22:32N 37°05' E 025°08'0 0.0
2014-Dec-16 21:16N 37°05' E 025°08'4 5.3
2014-Dec-16 20:33N 37°09' E 025°11'8 8.4
2014-Dec-16 19:33N 37°07' E 025°21'1 1.4
2014-Dec-16 18:33N 37°06' E 025°22'0 0.0
2014-Dec-16 17:33N 37°06' E 025°22'0 0.0
2014-Dec-16 16:33N 37°06' E 025°22'5 5.2
2014-Dec-16 15:33N 37°02' E 025°18'10 9.6
2014-Dec-16 14:33N 36°55' E 025°26'8 8.4
2014-Dec-16 13:33N 36°56' E 025°36'0 0.0
2014-Dec-16 12:33N 36°56' E 025°36'7 7.3
2014-Dec-16 11:33N 36°53' E 025°28'1110.6
2014-Dec-16 10:33N 36°48' E 025°16'5 4.8
2014-Dec-16 09:33N 36°43' E 025°16'0 0.0
2014-Dec-16 08:33N 36°43' E 025°16'0 0.0
2014-Dec-16 07:33N 36°43' E 025°16'2 1.5
2014-Dec-16 06:33N 36°42' E 025°16'0 0.2
2014-Dec-16 05:33N 36°42' E 025°16'7 6.5
2014-Dec-16 04:33N 36°38' E 025°22'1010.2
2014-Dec-16 03:32N 36°40' E 025°35'1010.1
2014-Dec-16 02:33N 36°42' E 025°47'1210.6
2014-Dec-16 01:22N 36°44' E 026°02'8 9.4
2014-Dec-16 00:33N 36°45' E 026°12'  
Track history (hours):
 
Tides and Currents Weather Stations Pressure Air Temp Water Temp Dewpoint Dewpoint Depression Visibility Wind Speed Wind Dir Waves Ship Positions

Chrisanthi

Last reported at 2014-Dec-22 09:33 UTC. Time now 2014-Dec-22 09:58 UTC.
Position N 36°23' E 025°26'.

Length 56 m; draft 3.9 m.

Type: Tanker. MMSI: 237009100.

Date/timePositionNaut miles runAvg speedWind from/ knotsBaromVisibWave heightAir tempDewpointWater temp
2014-Dec-22 09:33N 36°23' E 025°26'0 0.0
2014-Dec-22 08:33N 36°23' E 025°26'0 0.0
2014-Dec-22 07:33N 36°23' E 025°26'0 0.0
2014-Dec-22 06:33N 36°23' E 025°26'0 0.1
2014-Dec-22 05:33N 36°23' E 025°26'3 2.9
2014-Dec-22 04:33N 36°20' E 025°24'0 0.0
2014-Dec-22 03:33N 36°20' E 025°24'0 0.0
2014-Dec-22 02:33N 36°20' E 025°24'0 0.0
2014-Dec-22 01:33N 36°20' E 025°24'0 0.0
2014-Dec-22 00:33N 36°20' E 025°24'0 0.0
2014-Dec-21 23:33N 36°20' E 025°24'0 0.0
2014-Dec-21 22:33N 36°20' E 025°24'4 3.9
2014-Dec-21 21:33N 36°21' E 025°29'1010.4
2014-Dec-21 20:33N 36°27' E 025°39'1010.1
2014-Dec-21 19:33N 36°28' E 025°52'1010.1
2014-Dec-21 18:33N 36°29' E 026°04'1210.3
2014-Dec-21 17:24N 36°29' E 026°19'4 1.2
2014-Dec-21 14:08N 36°32' E 026°22'  
2014-Dec-19 06:33N 37°05' E 026°20'1010.1
2014-Dec-19 05:33N 37°07' E 026°08'1010.3
2014-Dec-19 04:33N 37°10' E 025°55'1010.1
2014-Dec-19 03:33N 37°13' E 025°43'1010.0
2014-Dec-19 02:33N 37°15' E 025°31'10 9.6
2014-Dec-19 01:33N 37°17' E 025°19'13 9.3
2014-Dec-19 00:09N 37°20' E 025°03'6 9.8
2014-Dec-18 23:33N 37°20' E 024°56'10 9.7
2014-Dec-18 22:33N 37°24' E 024°44'5010.0
2014-Dec-18 17:33N 37°39' E 023°44'9 9.6
2014-Dec-18 16:33N 37°47' E 023°38'10 9.6
2014-Dec-18 15:33N 37°51' E 023°27'7 0.4
2014-Dec-18 00:30N 37°52' E 023°19'1010.6
2014-Dec-17 23:33N 37°50' E 023°31'9 9.4
2014-Dec-17 22:33N 37°46' E 023°42'29 9.7
2014-Dec-17 19:32N 37°30' E 024°13'1010.3
2014-Dec-17 18:33N 37°30' E 024°26'9 9.3
2014-Dec-17 17:33N 37°22' E 024°32'9 9.4
2014-Dec-17 16:33N 37°17' E 024°42'10 9.5
2014-Dec-17 15:33N 37°14' E 024°54'10 9.8
2014-Dec-17 14:33N 37°08' E 025°04'5 4.8
2014-Dec-17 13:28N 37°05' E 025°09'0 0.0
2014-Dec-17 12:28N 37°05' E 025°09'0 0.0
2014-Dec-17 11:28N 37°05' E 025°09'0 0.3
2014-Dec-17 10:03N 37°05' E 025°08'0 0.2
2014-Dec-17 09:33N 37°05' E 025°08'0 0.0
2014-Dec-17 08:24N 37°05' E 025°08'0 0.1
2014-Dec-17 07:22N 37°06' E 025°08'0 0.0
2014-Dec-17 06:33N 37°06' E 025°08'0 0.0
2014-Dec-17 05:29N 37°06' E 025°08'0 0.0
2014-Dec-17 04:26N 37°06' E 025°08'0 0.0
2014-Dec-17 03:30N 37°06' E 025°08'0 0.0
2014-Dec-17 02:33N 37°06' E 025°08'0 0.0
2014-Dec-17 01:31N 37°06' E 025°08'0 0.0
2014-Dec-17 00:16N 37°06' E 025°08'0 0.0
2014-Dec-16 23:20N 37°06' E 025°08'0 0.1
2014-Dec-16 22:32N 37°05' E 025°08'0 0.0
2014-Dec-16 21:16N 37°05' E 025°08'4 5.3
2014-Dec-16 20:33N 37°09' E 025°11'8 8.4
2014-Dec-16 19:33N 37°07' E 025°21'1 1.4
2014-Dec-16 18:33N 37°06' E 025°22'0 0.0
2014-Dec-16 17:33N 37°06' E 025°22'0 0.0
2014-Dec-16 16:33N 37°06' E 025°22'5 5.2
2014-Dec-16 15:33N 37°02' E 025°18'10 9.6
2014-Dec-16 14:33N 36°55' E 025°26'8 8.4
2014-Dec-16 13:33N 36°56' E 025°36'0 0.0
2014-Dec-16 12:33N 36°56' E 025°36'7 7.3
2014-Dec-16 11:33N 36°53' E 025°28'1110.6
2014-Dec-16 10:33N 36°48' E 025°16'5 4.8
2014-Dec-16 09:33N 36°43' E 025°16'0 0.0
2014-Dec-16 08:33N 36°43' E 025°16'0 0.0
2014-Dec-16 07:33N 36°43' E 025°16'2 1.5
2014-Dec-16 06:33N 36°42' E 025°16'0 0.2
2014-Dec-16 05:33N 36°42' E 025°16'7 6.5
2014-Dec-16 04:33N 36°38' E 025°22'1010.2
2014-Dec-16 03:32N 36°40' E 025°35'1010.1
2014-Dec-16 02:33N 36°42' E 025°47'1210.6
2014-Dec-16 01:22N 36°44' E 026°02'8 9.4
2014-Dec-16 00:33N 36°45' E 026°12'  

Dump ship's entire track history